sensor_id;sensor_type;location;lat;lon;timestamp;temperature;humidity
5192;DHT22;2615;44.524;11.284;2023-10-31T00:00:06;18.80;76.70
5192;DHT22;2615;44.524;11.284;2023-10-31T00:02:38;18.80;76.70
5192;DHT22;2615;44.524;11.284;2023-10-31T00:05:06;18.80;76.80
5192;DHT22;2615;44.524;11.284;2023-10-31T00:07:34;18.80;76.70
5192;DHT22;2615;44.524;11.284;2023-10-31T00:10:03;18.70;76.60
5192;DHT22;2615;44.524;11.284;2023-10-31T00:12:32;18.70;76.60
5192;DHT22;2615;44.524;11.284;2023-10-31T00:15:02;18.70;76.60
5192;DHT22;2615;44.524;11.284;2023-10-31T00:17:30;18.70;76.60
5192;DHT22;2615;44.524;11.284;2023-10-31T00:19:58;18.70;76.60
5192;DHT22;2615;44.524;11.284;2023-10-31T00:22:27;18.70;76.50
5192;DHT22;2615;44.524;11.284;2023-10-31T00:24:55;18.60;76.50
5192;DHT22;2615;44.524;11.284;2023-10-31T00:27:23;18.60;77.20
5192;DHT22;2615;44.524;11.284;2023-10-31T00:29:51;18.60;76.50
5192;DHT22;2615;44.524;11.284;2023-10-31T00:32:21;18.60;76.50
5192;DHT22;2615;44.524;11.284;2023-10-31T00:34:49;18.60;76.50
5192;DHT22;2615;44.524;11.284;2023-10-31T00:37:17;18.60;76.50
5192;DHT22;2615;44.524;11.284;2023-10-31T00:39:45;18.50;76.40
5192;DHT22;2615;44.524;11.284;2023-10-31T00:42:13;18.50;76.40
5192;DHT22;2615;44.524;11.284;2023-10-31T00:44:42;18.50;76.50
5192;DHT22;2615;44.524;11.284;2023-10-31T00:47:10;18.50;76.40
5192;DHT22;2615;44.524;11.284;2023-10-31T00:49:40;18.50;77.10
5192;DHT22;2615;44.524;11.284;2023-10-31T00:52:08;18.40;76.20
5192;DHT22;2615;44.524;11.284;2023-10-31T00:54:36;18.40;76.50
5192;DHT22;2615;44.524;11.284;2023-10-31T00:57:04;18.40;76.20
5192;DHT22;2615;44.524;11.284;2023-10-31T00:59:32;18.40;76.30
5192;DHT22;2615;44.524;11.284;2023-10-31T01:02:00;18.40;76.20
5192;DHT22;2615;44.524;11.284;2023-10-31T01:04:29;18.40;76.20
5192;DHT22;2615;44.524;11.284;2023-10-31T01:06:59;18.40;76.40
5192;DHT22;2615;44.524;11.284;2023-10-31T01:09:27;18.40;76.30
5192;DHT22;2615;44.524;11.284;2023-10-31T01:11:55;18.40;76.20
5192;DHT22;2615;44.524;11.284;2023-10-31T01:14:23;18.40;76.20
5192;DHT22;2615;44.524;11.284;2023-10-31T01:16:52;18.40;76.20
5192;DHT22;2615;44.524;11.284;2023-10-31T01:19:20;18.40;76.10
5192;DHT22;2615;44.524;11.284;2023-10-31T01:21:48;18.40;76.00
5192;DHT22;2615;44.524;11.284;2023-10-31T01:24:17;18.40;76.10
5192;DHT22;2615;44.524;11.284;2023-10-31T01:26:45;18.40;76.40
5192;DHT22;2615;44.524;11.284;2023-10-31T01:29:14;18.40;76.40
5192;DHT22;2615;44.524;11.284;2023-10-31T01:31:42;18.40;76.20
5192;DHT22;2615;44.524;11.284;2023-10-31T01:34:25;18.40;76.10
5192;DHT22;2615;44.524;11.284;2023-10-31T01:36:53;18.40;76.00
5192;DHT22;2615;44.524;11.284;2023-10-31T01:39:23;18.40;76.00
5192;DHT22;2615;44.524;11.284;2023-10-31T01:41:51;18.30;76.00
5192;DHT22;2615;44.524;11.284;2023-10-31T01:44:21;18.30;76.20
5192;DHT22;2615;44.524;11.284;2023-10-31T01:46:49;18.30;76.20
5192;DHT22;2615;44.524;11.284;2023-10-31T01:49:17;18.30;76.20
5192;DHT22;2615;44.524;11.284;2023-10-31T01:51:46;18.30;76.10
5192;DHT22;2615;44.524;11.284;2023-10-31T01:54:15;18.20;76.00
5192;DHT22;2615;44.524;11.284;2023-10-31T01:56:45;18.20;76.10
5192;DHT22;2615;44.524;11.284;2023-10-31T01:59:15;18.20;76.20
5192;DHT22;2615;44.524;11.284;2023-10-31T02:01:43;18.20;76.00
5192;DHT22;2615;44.524;11.284;2023-10-31T02:04:12;18.20;76.00
5192;DHT22;2615;44.524;11.284;2023-10-31T02:06:40;18.10;75.90
5192;DHT22;2615;44.524;11.284;2023-10-31T02:09:08;18.10;75.90
5192;DHT22;2615;44.524;11.284;2023-10-31T02:11:36;18.10;76.00
5192;DHT22;2615;44.524;11.284;2023-10-31T02:14:06;18.10;76.00
5192;DHT22;2615;44.524;11.284;2023-10-31T02:16:34;18.10;76.00
5192;DHT22;2615;44.524;11.284;2023-10-31T02:19:03;18.10;75.90
5192;DHT22;2615;44.524;11.284;2023-10-31T02:21:32;18.10;75.90
5192;DHT22;2615;44.524;11.284;2023-10-31T02:24:03;18.00;75.80
5192;DHT22;2615;44.524;11.284;2023-10-31T02:26:31;18.00;75.80
5192;DHT22;2615;44.524;11.284;2023-10-31T02:29:01;18.00;75.80
5192;DHT22;2615;44.524;11.284;2023-10-31T02:31:29;18.00;75.80
5192;DHT22;2615;44.524;11.284;2023-10-31T02:33:57;18.10;76.10
5192;DHT22;2615;44.524;11.284;2023-10-31T02:36:25;18.10;75.80
5192;DHT22;2615;44.524;11.284;2023-10-31T02:38:54;18.10;75.70
5192;DHT22;2615;44.524;11.284;2023-10-31T02:41:23;18.20;75.70
5192;DHT22;2615;44.524;11.284;2023-10-31T02:43:52;18.20;75.70
5192;DHT22;2615;44.524;11.284;2023-10-31T02:46:22;18.20;75.70
5192;DHT22;2615;44.524;11.284;2023-10-31T02:48:50;18.20;75.70
5192;DHT22;2615;44.524;11.284;2023-10-31T02:51:18;18.20;75.70
5192;DHT22;2615;44.524;11.284;2023-10-31T02:53:46;18.20;75.70
5192;DHT22;2615;44.524;11.284;2023-10-31T02:56:14;18.20;75.70
5192;DHT22;2615;44.524;11.284;2023-10-31T02:58:44;18.20;75.60
5192;DHT22;2615;44.524;11.284;2023-10-31T03:01:12;18.20;75.40
5192;DHT22;2615;44.524;11.284;2023-10-31T03:03:40;18.10;75.40
5192;DHT22;2615;44.524;11.284;2023-10-31T03:06:09;18.10;75.40
5192;DHT22;2615;44.524;11.284;2023-10-31T03:08:37;18.10;75.50
5192;DHT22;2615;44.524;11.284;2023-10-31T03:11:05;18.10;75.50
5192;DHT22;2615;44.524;11.284;2023-10-31T03:13:33;18.10;75.60
5192;DHT22;2615;44.524;11.284;2023-10-31T03:16:03;18.10;75.60
5192;DHT22;2615;44.524;11.284;2023-10-31T03:18:31;18.10;75.60
5192;DHT22;2615;44.524;11.284;2023-10-31T03:20:59;18.10;75.30
5192;DHT22;2615;44.524;11.284;2023-10-31T03:23:28;18.10;75.30
5192;DHT22;2615;44.524;11.284;2023-10-31T03:25:56;18.10;75.40
5192;DHT22;2615;44.524;11.284;2023-10-31T03:28:24;18.10;75.40
5192;DHT22;2615;44.524;11.284;2023-10-31T03:30:52;18.10;75.80
5192;DHT22;2615;44.524;11.284;2023-10-31T03:33:22;18.20;75.40
5192;DHT22;2615;44.524;11.284;2023-10-31T03:35:51;18.20;75.20
5192;DHT22;2615;44.524;11.284;2023-10-31T03:38:19;18.20;75.00
5192;DHT22;2615;44.524;11.284;2023-10-31T03:40:47;18.30;74.90
5192;DHT22;2615;44.524;11.284;2023-10-31T03:43:15;18.20;74.70
5192;DHT22;2615;44.524;11.284;2023-10-31T03:45:43;18.30;74.80
5192;DHT22;2615;44.524;11.284;2023-10-31T03:48:11;18.30;74.70
5192;DHT22;2615;44.524;11.284;2023-10-31T03:50:41;18.30;74.60
5192;DHT22;2615;44.524;11.284;2023-10-31T03:53:09;18.30;74.80
5192;DHT22;2615;44.524;11.284;2023-10-31T03:55:38;18.30;74.70
5192;DHT22;2615;44.524;11.284;2023-10-31T03:58:06;18.40;74.90
5192;DHT22;2615;44.524;11.284;2023-10-31T04:00:34;18.40;74.70
5192;DHT22;2615;44.524;11.284;2023-10-31T04:03:02;18.40;74.60
5192;DHT22;2615;44.524;11.284;2023-10-31T04:05:31;18.40;74.40
5192;DHT22;2615;44.524;11.284;2023-10-31T04:08:01;18.40;74.40
5192;DHT22;2615;44.524;11.284;2023-10-31T04:10:29;18.40;74.30
5192;DHT22;2615;44.524;11.284;2023-10-31T04:12:57;18.40;74.30
5192;DHT22;2615;44.524;11.284;2023-10-31T04:15:25;18.30;74.20
5192;DHT22;2615;44.524;11.284;2023-10-31T04:17:53;18.30;74.80
5192;DHT22;2615;44.524;11.284;2023-10-31T04:20:21;18.30;74.10
5192;DHT22;2615;44.524;11.284;2023-10-31T04:22:49;18.30;74.10
5192;DHT22;2615;44.524;11.284;2023-10-31T04:25:19;18.30;74.20
5192;DHT22;2615;44.524;11.284;2023-10-31T04:27:47;18.30;74.20
5192;DHT22;2615;44.524;11.284;2023-10-31T04:30:15;18.30;74.10
5192;DHT22;2615;44.524;11.284;2023-10-31T04:32:43;18.30;74.20
5192;DHT22;2615;44.524;11.284;2023-10-31T04:35:12;18.30;74.20
5192;DHT22;2615;44.524;11.284;2023-10-31T04:37:40;18.30;74.10
5192;DHT22;2615;44.524;11.284;2023-10-31T04:40:10;18.30;74.00
5192;DHT22;2615;44.524;11.284;2023-10-31T04:42:40;18.30;73.90
5192;DHT22;2615;44.524;11.284;2023-10-31T04:45:09;18.30;73.80
5192;DHT22;2615;44.524;11.284;2023-10-31T04:47:37;18.30;73.60
5192;DHT22;2615;44.524;11.284;2023-10-31T04:50:06;18.40;73.60
5192;DHT22;2615;44.524;11.284;2023-10-31T04:52:34;18.40;73.70
5192;DHT22;2615;44.524;11.284;2023-10-31T04:55:02;18.40;73.60
5192;DHT22;2615;44.524;11.284;2023-10-31T04:57:31;18.40;73.30
5192;DHT22;2615;44.524;11.284;2023-10-31T05:00:00;18.40;73.10
5192;DHT22;2615;44.524;11.284;2023-10-31T05:02:30;18.40;73.00
5192;DHT22;2615;44.524;11.284;2023-10-31T05:04:58;18.40;73.00
5192;DHT22;2615;44.524;11.284;2023-10-31T05:07:26;18.40;72.80
5192;DHT22;2615;44.524;11.284;2023-10-31T05:09:55;18.40;72.60
5192;DHT22;2615;44.524;11.284;2023-10-31T05:12:23;18.40;72.60
5192;DHT22;2615;44.524;11.284;2023-10-31T05:14:51;18.30;72.30
5192;DHT22;2615;44.524;11.284;2023-10-31T05:17:21;18.30;72.10
5192;DHT22;2615;44.524;11.284;2023-10-31T05:19:49;18.30;72.00
5192;DHT22;2615;44.524;11.284;2023-10-31T05:22:18;18.30;71.70
5192;DHT22;2615;44.524;11.284;2023-10-31T05:24:47;18.30;71.80
5192;DHT22;2615;44.524;11.284;2023-10-31T05:27:15;18.30;71.80
5192;DHT22;2615;44.524;11.284;2023-10-31T05:29:43;18.30;71.70
5192;DHT22;2615;44.524;11.284;2023-10-31T05:32:11;18.30;71.70
5192;DHT22;2615;44.524;11.284;2023-10-31T05:34:41;18.20;71.40
5192;DHT22;2615;44.524;11.284;2023-10-31T05:37:09;18.20;71.20
5192;DHT22;2615;44.524;11.284;2023-10-31T05:39:37;18.20;70.80
5192;DHT22;2615;44.524;11.284;2023-10-31T05:42:05;18.10;70.40
5192;DHT22;2615;44.524;11.284;2023-10-31T05:44:33;18.10;70.20
5192;DHT22;2615;44.524;11.284;2023-10-31T05:47:02;18.00;70.20
5192;DHT22;2615;44.524;11.284;2023-10-31T05:49:30;18.00;70.20
5192;DHT22;2615;44.524;11.284;2023-10-31T05:52:00;18.00;70.10
5192;DHT22;2615;44.524;11.284;2023-10-31T05:54:28;17.90;69.60
5192;DHT22;2615;44.524;11.284;2023-10-31T05:56:56;18.00;69.60
5192;DHT22;2615;44.524;11.284;2023-10-31T05:59:24;18.00;69.10
5192;DHT22;2615;44.524;11.284;2023-10-31T06:01:52;18.00;69.10
5192;DHT22;2615;44.524;11.284;2023-10-31T06:04:20;18.10;69.00
5192;DHT22;2615;44.524;11.284;2023-10-31T06:06:49;18.10;68.90
5192;DHT22;2615;44.524;11.284;2023-10-31T06:09:18;18.10;68.40
5192;DHT22;2615;44.524;11.284;2023-10-31T06:11:47;18.10;68.00
5192;DHT22;2615;44.524;11.284;2023-10-31T06:14:15;18.10;67.60
5192;DHT22;2615;44.524;11.284;2023-10-31T06:16:44;18.10;67.30
5192;DHT22;2615;44.524;11.284;2023-10-31T06:19:12;18.10;67.20
5192;DHT22;2615;44.524;11.284;2023-10-31T06:21:40;18.10;66.80
5192;DHT22;2615;44.524;11.284;2023-10-31T06:24:09;18.20;66.40
5192;DHT22;2615;44.524;11.284;2023-10-31T06:26:38;18.20;66.60
5192;DHT22;2615;44.524;11.284;2023-10-31T06:29:07;18.30;66.80
5192;DHT22;2615;44.524;11.284;2023-10-31T06:31:55;18.40;66.80
5192;DHT22;2615;44.524;11.284;2023-10-31T06:34:23;18.40;66.60
5192;DHT22;2615;44.524;11.284;2023-10-31T06:36:51;18.50;66.50
5192;DHT22;2615;44.524;11.284;2023-10-31T06:39:20;18.50;66.30
5192;DHT22;2615;44.524;11.284;2023-10-31T06:41:54;18.60;65.90
5192;DHT22;2615;44.524;11.284;2023-10-31T06:44:23;18.60;65.20
5192;DHT22;2615;44.524;11.284;2023-10-31T06:46:51;18.70;64.70
5192;DHT22;2615;44.524;11.284;2023-10-31T06:49:19;18.80;64.20
5192;DHT22;2615;44.524;11.284;2023-10-31T06:51:47;18.90;63.70
5192;DHT22;2615;44.524;11.284;2023-10-31T06:54:15;18.90;63.20
5192;DHT22;2615;44.524;11.284;2023-10-31T06:56:43;18.90;62.80
5192;DHT22;2615;44.524;11.284;2023-10-31T06:59:14;18.90;62.40
5192;DHT22;2615;44.524;11.284;2023-10-31T07:01:44;18.90;61.90
5192;DHT22;2615;44.524;11.284;2023-10-31T07:04:13;18.90;61.60
5192;DHT22;2615;44.524;11.284;2023-10-31T07:06:43;18.90;61.40
5192;DHT22;2615;44.524;11.284;2023-10-31T07:09:11;19.00;61.30
5192;DHT22;2615;44.524;11.284;2023-10-31T07:11:40;19.00;61.00
5192;DHT22;2615;44.524;11.284;2023-10-31T07:14:08;19.00;60.80
5192;DHT22;2615;44.524;11.284;2023-10-31T07:16:38;19.10;60.60
5192;DHT22;2615;44.524;11.284;2023-10-31T07:19:06;19.10;60.30
5192;DHT22;2615;44.524;11.284;2023-10-31T07:21:35;19.10;60.20
5192;DHT22;2615;44.524;11.284;2023-10-31T07:24:04;19.20;60.10
5192;DHT22;2615;44.524;11.284;2023-10-31T07:26:32;19.20;59.90
5192;DHT22;2615;44.524;11.284;2023-10-31T07:29:00;19.20;59.70
5192;DHT22;2615;44.524;11.284;2023-10-31T07:31:28;19.20;59.60
5192;DHT22;2615;44.524;11.284;2023-10-31T07:33:58;19.10;59.50
5192;DHT22;2615;44.524;11.284;2023-10-31T07:36:26;19.10;59.40
5192;DHT22;2615;44.524;11.284;2023-10-31T07:38:54;19.10;59.30
5192;DHT22;2615;44.524;11.284;2023-10-31T07:41:22;19.10;59.30
5192;DHT22;2615;44.524;11.284;2023-10-31T07:43:50;19.20;59.40
5192;DHT22;2615;44.524;11.284;2023-10-31T07:46:18;19.20;59.30
5192;DHT22;2615;44.524;11.284;2023-10-31T07:48:47;19.30;59.20
5192;DHT22;2615;44.524;11.284;2023-10-31T07:51:16;19.40;59.20
5192;DHT22;2615;44.524;11.284;2023-10-31T07:53:44;19.40;59.00
5192;DHT22;2615;44.524;11.284;2023-10-31T07:56:17;19.50;58.90
5192;DHT22;2615;44.524;11.284;2023-10-31T07:58:49;19.50;58.80
5192;DHT22;2615;44.524;11.284;2023-10-31T08:01:18;19.50;58.70
5192;DHT22;2615;44.524;11.284;2023-10-31T08:03:47;19.50;58.70
5192;DHT22;2615;44.524;11.284;2023-10-31T08:06:16;19.50;58.60
5192;DHT22;2615;44.524;11.284;2023-10-31T08:08:44;19.40;58.40
5192;DHT22;2615;44.524;11.284;2023-10-31T08:11:13;19.10;58.10
5192;DHT22;2615;44.524;11.284;2023-10-31T08:13:41;18.60;58.00
5192;DHT22;2615;44.524;11.284;2023-10-31T08:16:09;18.30;58.40
5192;DHT22;2615;44.524;11.284;2023-10-31T08:18:37;17.90;58.70
5192;DHT22;2615;44.524;11.284;2023-10-31T08:21:05;17.60;59.00
5192;DHT22;2615;44.524;11.284;2023-10-31T08:23:36;17.30;59.20
5192;DHT22;2615;44.524;11.284;2023-10-31T08:26:05;17.00;59.60
5192;DHT22;2615;44.524;11.284;2023-10-31T08:28:33;16.80;60.10
5192;DHT22;2615;44.524;11.284;2023-10-31T08:31:01;16.50;60.40
5192;DHT22;2615;44.524;11.284;2023-10-31T08:33:30;16.30;60.70
5192;DHT22;2615;44.524;11.284;2023-10-31T08:35:59;16.10;61.20
5192;DHT22;2615;44.524;11.284;2023-10-31T08:38:27;15.90;61.60
5192;DHT22;2615;44.524;11.284;2023-10-31T08:40:59;15.80;62.00
5192;DHT22;2615;44.524;11.284;2023-10-31T08:43:28;15.70;62.20
5192;DHT22;2615;44.524;11.284;2023-10-31T08:45:56;15.70;62.50
5192;DHT22;2615;44.524;11.284;2023-10-31T08:48:24;15.60;62.60
5192;DHT22;2615;44.524;11.284;2023-10-31T08:50:52;15.60;62.90
5192;DHT22;2615;44.524;11.284;2023-10-31T08:53:20;15.60;63.00
5192;DHT22;2615;44.524;11.284;2023-10-31T08:55:49;15.50;63.10
5192;DHT22;2615;44.524;11.284;2023-10-31T08:58:19;15.50;63.20
5192;DHT22;2615;44.524;11.284;2023-10-31T09:00:47;15.50;63.20
5192;DHT22;2615;44.524;11.284;2023-10-31T09:03:15;15.50;63.30
5192;DHT22;2615;44.524;11.284;2023-10-31T09:05:43;15.50;63.40
5192;DHT22;2615;44.524;11.284;2023-10-31T09:08:12;15.60;63.50
5192;DHT22;2615;44.524;11.284;2023-10-31T09:10:40;15.60;63.50
5192;DHT22;2615;44.524;11.284;2023-10-31T09:13:09;15.60;63.50
5192;DHT22;2615;44.524;11.284;2023-10-31T09:15:39;15.70;63.50
5192;DHT22;2615;44.524;11.284;2023-10-31T09:18:08;15.80;63.40
5192;DHT22;2615;44.524;11.284;2023-10-31T09:20:36;15.90;63.30
5192;DHT22;2615;44.524;11.284;2023-10-31T09:23:04;16.00;63.30
5192;DHT22;2615;44.524;11.284;2023-10-31T09:25:32;16.10;63.20
5192;DHT22;2615;44.524;11.284;2023-10-31T09:28:00;16.20;63.00
5192;DHT22;2615;44.524;11.284;2023-10-31T09:30:29;16.30;62.80
5192;DHT22;2615;44.524;11.284;2023-10-31T09:32:58;16.40;62.60
5192;DHT22;2615;44.524;11.284;2023-10-31T09:35:27;16.60;62.50
5192;DHT22;2615;44.524;11.284;2023-10-31T09:37:55;16.70;62.20
5192;DHT22;2615;44.524;11.284;2023-10-31T09:40:24;16.80;62.00
5192;DHT22;2615;44.524;11.284;2023-10-31T09:42:53;16.90;62.40
5192;DHT22;2615;44.524;11.284;2023-10-31T09:45:21;17.00;61.50
5192;DHT22;2615;44.524;11.284;2023-10-31T09:47:49;17.00;61.10
5192;DHT22;2615;44.524;11.284;2023-10-31T09:50:18;17.20;60.90
5192;DHT22;2615;44.524;11.284;2023-10-31T09:52:47;17.30;60.60
5192;DHT22;2615;44.524;11.284;2023-10-31T09:55:15;17.40;60.30
5192;DHT22;2615;44.524;11.284;2023-10-31T09:57:44;17.50;60.00
5192;DHT22;2615;44.524;11.284;2023-10-31T10:00:13;17.60;59.80
5192;DHT22;2615;44.524;11.284;2023-10-31T10:02:41;17.80;59.70
5192;DHT22;2615;44.524;11.284;2023-10-31T10:05:09;17.90;59.50
5192;DHT22;2615;44.524;11.284;2023-10-31T10:07:41;18.00;59.30
5192;DHT22;2615;44.524;11.284;2023-10-31T10:10:11;18.00;58.90
5192;DHT22;2615;44.524;11.284;2023-10-31T10:12:42;18.10;58.90
5192;DHT22;2615;44.524;11.284;2023-10-31T10:15:11;18.10;58.70
5192;DHT22;2615;44.524;11.284;2023-10-31T10:17:48;18.20;58.60
5192;DHT22;2615;44.524;11.284;2023-10-31T10:20:17;18.20;58.40
5192;DHT22;2615;44.524;11.284;2023-10-31T10:22:47;18.30;58.40
5192;DHT22;2615;44.524;11.284;2023-10-31T10:25:16;18.30;58.20
5192;DHT22;2615;44.524;11.284;2023-10-31T10:27:45;18.40;58.10
5192;DHT22;2615;44.524;11.284;2023-10-31T10:30:15;18.40;58.00
5192;DHT22;2615;44.524;11.284;2023-10-31T10:32:43;18.50;57.80
5192;DHT22;2615;44.524;11.284;2023-10-31T10:35:12;18.60;57.70
5192;DHT22;2615;44.524;11.284;2023-10-31T10:37:42;18.70;57.50
5192;DHT22;2615;44.524;11.284;2023-10-31T10:40:13;18.80;57.40
5192;DHT22;2615;44.524;11.284;2023-10-31T10:42:45;18.80;57.20
5192;DHT22;2615;44.524;11.284;2023-10-31T10:45:15;18.90;57.10
5192;DHT22;2615;44.524;11.284;2023-10-31T10:47:46;19.00;57.10
5192;DHT22;2615;44.524;11.284;2023-10-31T10:50:15;19.00;56.90
5192;DHT22;2615;44.524;11.284;2023-10-31T10:52:49;19.10;56.80
5192;DHT22;2615;44.524;11.284;2023-10-31T10:55:21;19.20;56.70
5192;DHT22;2615;44.524;11.284;2023-10-31T10:57:56;19.30;56.70
5192;DHT22;2615;44.524;11.284;2023-10-31T11:00:28;19.40;56.60
5192;DHT22;2615;44.524;11.284;2023-10-31T11:02:57;19.40;56.40
5192;DHT22;2615;44.524;11.284;2023-10-31T11:05:26;19.50;56.30
5192;DHT22;2615;44.524;11.284;2023-10-31T11:07:56;19.50;56.00
5192;DHT22;2615;44.524;11.284;2023-10-31T11:10:27;19.50;55.80
5192;DHT22;2615;44.524;11.284;2023-10-31T11:12:57;19.60;55.80
5192;DHT22;2615;44.524;11.284;2023-10-31T11:15:26;19.60;55.60
5192;DHT22;2615;44.524;11.284;2023-10-31T11:17:55;19.70;55.60
5192;DHT22;2615;44.524;11.284;2023-10-31T11:20:27;19.80;55.60
5192;DHT22;2615;44.524;11.284;2023-10-31T11:22:56;19.80;55.40
5192;DHT22;2615;44.524;11.284;2023-10-31T11:25:26;19.90;55.30
5192;DHT22;2615;44.524;11.284;2023-10-31T11:28:11;19.90;55.20
5192;DHT22;2615;44.524;11.284;2023-10-31T11:30:40;20.00;55.00
5192;DHT22;2615;44.524;11.284;2023-10-31T11:33:12;20.10;55.10
5192;DHT22;2615;44.524;11.284;2023-10-31T11:35:41;20.20;54.90
5192;DHT22;2615;44.524;11.284;2023-10-31T11:38:11;20.20;54.70
5192;DHT22;2615;44.524;11.284;2023-10-31T11:40:59;20.30;54.50
5192;DHT22;2615;44.524;11.284;2023-10-31T11:43:52;20.50;54.10
5192;DHT22;2615;44.524;11.284;2023-10-31T11:46:21;20.80;54.20
5192;DHT22;2615;44.524;11.284;2023-10-31T11:48:53;21.00;54.30
5192;DHT22;2615;44.524;11.284;2023-10-31T11:51:22;21.30;54.10
5192;DHT22;2615;44.524;11.284;2023-10-31T11:53:50;22.10;54.60
5192;DHT22;2615;44.524;11.284;2023-10-31T11:56:20;23.50;54.80
5192;DHT22;2615;44.524;11.284;2023-10-31T11:58:56;24.80;53.70
5192;DHT22;2615;44.524;11.284;2023-10-31T12:01:24;26.40;53.00
5192;DHT22;2615;44.524;11.284;2023-10-31T12:03:52;27.70;52.10
5192;DHT22;2615;44.524;11.284;2023-10-31T12:06:21;28.90;50.70
5192;DHT22;2615;44.524;11.284;2023-10-31T12:08:49;30.10;49.80
5192;DHT22;2615;44.524;11.284;2023-10-31T12:11:21;31.00;47.80
5192;DHT22;2615;44.524;11.284;2023-10-31T12:13:55;31.80;46.30
5192;DHT22;2615;44.524;11.284;2023-10-31T12:16:25;32.50;44.90
5192;DHT22;2615;44.524;11.284;2023-10-31T12:18:58;33.10;44.00
5192;DHT22;2615;44.524;11.284;2023-10-31T12:21:36;33.60;42.90
5192;DHT22;2615;44.524;11.284;2023-10-31T12:24:05;34.20;49.40
5192;DHT22;2615;44.524;11.284;2023-10-31T12:26:35;34.60;42.50
5192;DHT22;2615;44.524;11.284;2023-10-31T12:29:08;35.10;40.30
5192;DHT22;2615;44.524;11.284;2023-10-31T12:31:39;35.50;39.30
5192;DHT22;2615;44.524;11.284;2023-10-31T12:34:08;35.90;38.50
5192;DHT22;2615;44.524;11.284;2023-10-31T12:36:38;36.30;38.00
5192;DHT22;2615;44.524;11.284;2023-10-31T12:39:07;36.60;37.10
5192;DHT22;2615;44.524;11.284;2023-10-31T12:41:38;36.80;36.50
5192;DHT22;2615;44.524;11.284;2023-10-31T12:44:07;36.80;35.70
5192;DHT22;2615;44.524;11.284;2023-10-31T12:46:40;36.60;35.20
5192;DHT22;2615;44.524;11.284;2023-10-31T12:49:11;36.30;34.90
5192;DHT22;2615;44.524;11.284;2023-10-31T12:51:55;35.90;34.70
5192;DHT22;2615;44.524;11.284;2023-10-31T12:54:31;35.70;34.50
5192;DHT22;2615;44.524;11.284;2023-10-31T12:57:03;35.40;34.50
5192;DHT22;2615;44.524;11.284;2023-10-31T12:59:32;34.90;34.90
5192;DHT22;2615;44.524;11.284;2023-10-31T13:02:02;34.00;35.10
5192;DHT22;2615;44.524;11.284;2023-10-31T13:04:31;33.20;35.50
5192;DHT22;2615;44.524;11.284;2023-10-31T13:07:01;32.30;36.00
5192;DHT22;2615;44.524;11.284;2023-10-31T13:09:30;31.40;36.40
5192;DHT22;2615;44.524;11.284;2023-10-31T13:12:02;30.60;36.80
5192;DHT22;2615;44.524;11.284;2023-10-31T13:14:30;29.90;37.30
5192;DHT22;2615;44.524;11.284;2023-10-31T13:16:59;29.10;37.60
5192;DHT22;2615;44.524;11.284;2023-10-31T13:19:27;28.60;38.20
5192;DHT22;2615;44.524;11.284;2023-10-31T13:21:55;28.10;38.40
5192;DHT22;2615;44.524;11.284;2023-10-31T13:24:23;27.60;38.70
5192;DHT22;2615;44.524;11.284;2023-10-31T13:26:51;27.20;38.90
5192;DHT22;2615;44.524;11.284;2023-10-31T13:29:21;26.90;39.40
5192;DHT22;2615;44.524;11.284;2023-10-31T13:31:52;26.50;39.70
5192;DHT22;2615;44.524;11.284;2023-10-31T13:34:22;26.20;39.80
5192;DHT22;2615;44.524;11.284;2023-10-31T13:36:51;26.00;40.10
5192;DHT22;2615;44.524;11.284;2023-10-31T13:39:21;25.70;40.40
5192;DHT22;2615;44.524;11.284;2023-10-31T13:41:50;25.50;40.90
5192;DHT22;2615;44.524;11.284;2023-10-31T13:44:18;25.30;40.90
5192;DHT22;2615;44.524;11.284;2023-10-31T13:46:48;25.10;41.00
5192;DHT22;2615;44.524;11.284;2023-10-31T13:49:16;24.90;41.20
5192;DHT22;2615;44.524;11.284;2023-10-31T13:51:46;24.80;41.50
5192;DHT22;2615;44.524;11.284;2023-10-31T13:54:14;24.70;41.60
5192;DHT22;2615;44.524;11.284;2023-10-31T13:56:42;24.50;41.70
5192;DHT22;2615;44.524;11.284;2023-10-31T13:59:10;24.40;41.90
5192;DHT22;2615;44.524;11.284;2023-10-31T14:01:39;24.30;42.10
5192;DHT22;2615;44.524;11.284;2023-10-31T14:04:09;24.20;42.20
5192;DHT22;2615;44.524;11.284;2023-10-31T14:06:38;24.10;42.30
5192;DHT22;2615;44.524;11.284;2023-10-31T14:09:06;24.00;42.50
5192;DHT22;2615;44.524;11.284;2023-10-31T14:11:35;23.90;42.50
5192;DHT22;2615;44.524;11.284;2023-10-31T14:14:03;23.80;42.60
5192;DHT22;2615;44.524;11.284;2023-10-31T14:16:36;23.70;42.70
5192;DHT22;2615;44.524;11.284;2023-10-31T14:19:04;23.60;43.10
5192;DHT22;2615;44.524;11.284;2023-10-31T14:21:35;23.50;44.10
5192;DHT22;2615;44.524;11.284;2023-10-31T14:24:03;23.50;44.70
5192;DHT22;2615;44.524;11.284;2023-10-31T14:26:39;23.50;44.30
5192;DHT22;2615;44.524;11.284;2023-10-31T14:29:07;23.50;44.30
5192;DHT22;2615;44.524;11.284;2023-10-31T14:31:38;23.60;44.20
5192;DHT22;2615;44.524;11.284;2023-10-31T14:34:08;23.70;43.80
5192;DHT22;2615;44.524;11.284;2023-10-31T14:36:37;23.80;43.50
5192;DHT22;2615;44.524;11.284;2023-10-31T14:39:05;23.90;43.20
5192;DHT22;2615;44.524;11.284;2023-10-31T14:41:35;23.90;43.10
5192;DHT22;2615;44.524;11.284;2023-10-31T14:44:04;23.80;43.30
5192;DHT22;2615;44.524;11.284;2023-10-31T14:46:32;23.70;43.40
5192;DHT22;2615;44.524;11.284;2023-10-31T14:49:00;23.70;41.70
5192;DHT22;2615;44.524;11.284;2023-10-31T14:51:28;23.60;42.30
5192;DHT22;2615;44.524;11.284;2023-10-31T14:53:58;23.60;42.40
5192;DHT22;2615;44.524;11.284;2023-10-31T14:56:26;23.70;42.60
5192;DHT22;2615;44.524;11.284;2023-10-31T14:58:56;23.90;42.70
5192;DHT22;2615;44.524;11.284;2023-10-31T15:01:24;24.30;42.70
5192;DHT22;2615;44.524;11.284;2023-10-31T15:03:53;24.70;42.50
5192;DHT22;2615;44.524;11.284;2023-10-31T15:06:21;24.80;42.20
5192;DHT22;2615;44.524;11.284;2023-10-31T15:08:50;24.70;42.00
5192;DHT22;2615;44.524;11.284;2023-10-31T15:11:19;24.40;42.00
5192;DHT22;2615;44.524;11.284;2023-10-31T15:13:47;24.00;42.10
5192;DHT22;2615;44.524;11.284;2023-10-31T15:16:16;23.70;42.40
5192;DHT22;2615;44.524;11.284;2023-10-31T15:18:44;23.50;42.70
5192;DHT22;2615;44.524;11.284;2023-10-31T15:21:12;23.20;42.70
5192;DHT22;2615;44.524;11.284;2023-10-31T15:23:40;23.00;43.00
5192;DHT22;2615;44.524;11.284;2023-10-31T15:26:08;22.80;43.30
5192;DHT22;2615;44.524;11.284;2023-10-31T15:28:42;22.60;43.40
5192;DHT22;2615;44.524;11.284;2023-10-31T15:31:11;22.40;43.50
5192;DHT22;2615;44.524;11.284;2023-10-31T15:33:40;22.20;43.70
5192;DHT22;2615;44.524;11.284;2023-10-31T15:36:10;22.10;43.90
5192;DHT22;2615;44.524;11.284;2023-10-31T15:38:39;21.90;44.10
5192;DHT22;2615;44.524;11.284;2023-10-31T15:41:08;21.80;44.20
5192;DHT22;2615;44.524;11.284;2023-10-31T15:43:45;21.70;44.40
5192;DHT22;2615;44.524;11.284;2023-10-31T15:46:13;21.60;44.50
5192;DHT22;2615;44.524;11.284;2023-10-31T15:48:42;21.40;44.50
5192;DHT22;2615;44.524;11.284;2023-10-31T15:51:10;21.40;44.70
5192;DHT22;2615;44.524;11.284;2023-10-31T15:53:38;21.30;44.80
5192;DHT22;2615;44.524;11.284;2023-10-31T15:56:07;21.20;45.00